sensor_id;sensor_type;location;lat;lon;timestamp;P1;durP1;ratioP1;P2;durP2;ratioP2
35488;SDS011;21602;55.670;37.578;2022-08-03T00:01:40;24.58;;;6.13;;
35488;SDS011;21602;55.670;37.578;2022-08-03T00:04:07;27.67;;;6.47;;
35488;SDS011;21602;55.670;37.578;2022-08-03T00:06:34;21.67;;;6.28;;
35488;SDS011;21602;55.670;37.578;2022-08-03T00:09:00;29.92;;;7.25;;
35488;SDS011;21602;55.670;37.578;2022-08-03T00:11:26;16.42;;;6.88;;
35488;SDS011;21602;55.670;37.578;2022-08-03T00:13:51;29.30;;;6.95;;
35488;SDS011;21602;55.670;37.578;2022-08-03T00:16:17;19.02;;;6.32;;
35488;SDS011;21602;55.670;37.578;2022-08-03T00:18:43;23.35;;;7.47;;
35488;SDS011;21602;55.670;37.578;2022-08-03T00:21:10;31.05;;;7.47;;
35488;SDS011;21602;55.670;37.578;2022-08-03T00:23:36;19.05;;;6.80;;
35488;SDS011;21602;55.670;37.578;2022-08-03T00:26:02;14.68;;;5.97;;
35488;SDS011;21602;55.670;37.578;2022-08-03T00:28:28;27.10;;;7.25;;
35488;SDS011;21602;55.670;37.578;2022-08-03T00:30:54;25.42;;;6.93;;
35488;SDS011;21602;55.670;37.578;2022-08-03T00:33:20;15.43;;;6.10;;
35488;SDS011;21602;55.670;37.578;2022-08-03T00:35:46;21.40;;;7.40;;
35488;SDS011;21602;55.670;37.578;2022-08-03T00:38:12;21.45;;;6.72;;
35488;SDS011;21602;55.670;37.578;2022-08-03T00:40:38;24.15;;;7.03;;
35488;SDS011;21602;55.670;37.578;2022-08-03T00:43:04;20.58;;;7.65;;
35488;SDS011;21602;55.670;37.578;2022-08-03T00:45:32;14.77;;;6.85;;
35488;SDS011;21602;55.670;37.578;2022-08-03T00:48:04;24.70;;;7.47;;
35488;SDS011;21602;55.670;37.578;2022-08-03T00:50:32;15.13;;;6.40;;
35488;SDS011;21602;55.670;37.578;2022-08-03T00:53:00;17.17;;;7.28;;
35488;SDS011;21602;55.670;37.578;2022-08-03T00:55:28;17.73;;;7.18;;
35488;SDS011;21602;55.670;37.578;2022-08-03T00:57:55;19.98;;;5.88;;
35488;SDS011;21602;55.670;37.578;2022-08-03T01:00:22;22.02;;;7.50;;
35488;SDS011;21602;55.670;37.578;2022-08-03T01:05:15;14.70;;;7.78;;
35488;SDS011;21602;55.670;37.578;2022-08-03T01:16:23;12.80;;;7.13;;
35488;SDS011;21602;55.670;37.578;2022-08-03T01:19:10;18.48;;;7.43;;
35488;SDS011;21602;55.670;37.578;2022-08-03T01:25:04;20.15;;;7.10;;
35488;SDS011;21602;55.670;37.578;2022-08-03T01:27:46;17.65;;;7.55;;
35488;SDS011;21602;55.670;37.578;2022-08-03T01:30:27;14.68;;;7.40;;
35488;SDS011;21602;55.670;37.578;2022-08-03T01:38:23;21.83;;;6.95;;
35488;SDS011;21602;55.670;37.578;2022-08-03T01:40:53;15.57;;;6.95;;
35488;SDS011;21602;55.670;37.578;2022-08-03T01:43:22;11.77;;;6.55;;
35488;SDS011;21602;55.670;37.578;2022-08-03T01:45:54;15.85;;;6.60;;
35488;SDS011;21602;55.670;37.578;2022-08-03T01:48:22;15.35;;;6.00;;
35488;SDS011;21602;55.670;37.578;2022-08-03T01:50:50;16.90;;;6.68;;
35488;SDS011;21602;55.670;37.578;2022-08-03T01:53:19;27.20;;;6.72;;
35488;SDS011;21602;55.670;37.578;2022-08-03T01:55:47;14.82;;;6.53;;
35488;SDS011;21602;55.670;37.578;2022-08-03T01:58:16;14.98;;;5.30;;
35488;SDS011;21602;55.670;37.578;2022-08-03T02:00:45;10.50;;;5.47;;
35488;SDS011;21602;55.670;37.578;2022-08-03T02:03:13;17.33;;;5.60;;
35488;SDS011;21602;55.670;37.578;2022-08-03T02:05:42;18.63;;;5.68;;
35488;SDS011;21602;55.670;37.578;2022-08-03T02:08:10;24.75;;;6.00;;
35488;SDS011;21602;55.670;37.578;2022-08-03T02:10:38;7.95;;;5.40;;
35488;SDS011;21602;55.670;37.578;2022-08-03T02:13:07;10.35;;;5.05;;
35488;SDS011;21602;55.670;37.578;2022-08-03T02:15:35;10.75;;;5.40;;
35488;SDS011;21602;55.670;37.578;2022-08-03T02:18:02;14.68;;;5.35;;
35488;SDS011;21602;55.670;37.578;2022-08-03T02:20:31;15.75;;;5.38;;
35488;SDS011;21602;55.670;37.578;2022-08-03T02:23:00;9.63;;;5.50;;
35488;SDS011;21602;55.670;37.578;2022-08-03T02:25:26;7.53;;;4.75;;
35488;SDS011;21602;55.670;37.578;2022-08-03T02:28:01;14.57;;;5.13;;
35488;SDS011;21602;55.670;37.578;2022-08-03T02:30:33;11.30;;;5.20;;
35488;SDS011;21602;55.670;37.578;2022-08-03T02:33:02;13.88;;;5.35;;
35488;SDS011;21602;55.670;37.578;2022-08-03T02:35:29;7.63;;;4.95;;
35488;SDS011;21602;55.670;37.578;2022-08-03T02:38:02;11.95;;;5.53;;
35488;SDS011;21602;55.670;37.578;2022-08-03T02:40:30;12.52;;;5.68;;
35488;SDS011;21602;55.670;37.578;2022-08-03T02:43:01;13.50;;;4.80;;
35488;SDS011;21602;55.670;37.578;2022-08-03T02:45:29;13.48;;;5.63;;
35488;SDS011;21602;55.670;37.578;2022-08-03T02:48:01;12.90;;;5.55;;
35488;SDS011;21602;55.670;37.578;2022-08-03T02:50:29;16.55;;;5.50;;
35488;SDS011;21602;55.670;37.578;2022-08-03T02:52:56;12.45;;;5.63;;
35488;SDS011;21602;55.670;37.578;2022-08-03T02:55:24;15.88;;;5.55;;
35488;SDS011;21602;55.670;37.578;2022-08-03T02:57:51;12.27;;;5.10;;
35488;SDS011;21602;55.670;37.578;2022-08-03T03:02:46;20.95;;;6.05;;
35488;SDS011;21602;55.670;37.578;2022-08-03T03:05:12;21.88;;;6.60;;
35488;SDS011;21602;55.670;37.578;2022-08-03T03:07:40;17.00;;;5.78;;
35488;SDS011;21602;55.670;37.578;2022-08-03T03:10:07;17.90;;;5.97;;
35488;SDS011;21602;55.670;37.578;2022-08-03T03:12:35;17.77;;;7.30;;
35488;SDS011;21602;55.670;37.578;2022-08-03T03:15:04;14.02;;;6.32;;
35488;SDS011;21602;55.670;37.578;2022-08-03T03:17:30;11.48;;;6.63;;
35488;SDS011;21602;55.670;37.578;2022-08-03T03:19:57;17.20;;;6.43;;
35488;SDS011;21602;55.670;37.578;2022-08-03T03:22:24;14.20;;;6.40;;
35488;SDS011;21602;55.670;37.578;2022-08-03T03:24:51;9.73;;;5.88;;
35488;SDS011;21602;55.670;37.578;2022-08-03T03:27:19;13.00;;;6.05;;
35488;SDS011;21602;55.670;37.578;2022-08-03T03:29:45;22.38;;;6.72;;
35488;SDS011;21602;55.670;37.578;2022-08-03T03:32:12;25.13;;;11.57;;
35488;SDS011;21602;55.670;37.578;2022-08-03T03:34:38;20.13;;;6.38;;
35488;SDS011;21602;55.670;37.578;2022-08-03T03:37:04;12.43;;;5.60;;
35488;SDS011;21602;55.670;37.578;2022-08-03T03:39:30;23.00;;;6.25;;
35488;SDS011;21602;55.670;37.578;2022-08-03T03:41:56;19.90;;;6.20;;
35488;SDS011;21602;55.670;37.578;2022-08-03T03:44:26;12.50;;;6.05;;
35488;SDS011;21602;55.670;37.578;2022-08-03T03:46:54;10.90;;;6.78;;
35488;SDS011;21602;55.670;37.578;2022-08-03T03:51:47;12.60;;;6.88;;
35488;SDS011;21602;55.670;37.578;2022-08-03T03:54:13;9.10;;;5.88;;
35488;SDS011;21602;55.670;37.578;2022-08-03T03:56:38;12.82;;;5.90;;
35488;SDS011;21602;55.670;37.578;2022-08-03T03:59:05;11.52;;;6.05;;
35488;SDS011;21602;55.670;37.578;2022-08-03T04:01:30;12.40;;;6.93;;
35488;SDS011;21602;55.670;37.578;2022-08-03T04:03:56;12.30;;;6.80;;
35488;SDS011;21602;55.670;37.578;2022-08-03T04:06:42;13.55;;;6.00;;
35488;SDS011;21602;55.670;37.578;2022-08-03T04:09:26;10.50;;;6.20;;
35488;SDS011;21602;55.670;37.578;2022-08-03T04:12:11;11.73;;;5.63;;
35488;SDS011;21602;55.670;37.578;2022-08-03T04:14:37;13.50;;;6.10;;
35488;SDS011;21602;55.670;37.578;2022-08-03T04:17:06;11.90;;;5.18;;
35488;SDS011;21602;55.670;37.578;2022-08-03T04:19:41;16.20;;;5.68;;
35488;SDS011;21602;55.670;37.578;2022-08-03T04:22:13;10.45;;;6.50;;
35488;SDS011;21602;55.670;37.578;2022-08-03T04:24:47;10.32;;;5.05;;
35488;SDS011;21602;55.670;37.578;2022-08-03T04:27:15;10.40;;;5.55;;
35488;SDS011;21602;55.670;37.578;2022-08-03T04:29:45;10.15;;;5.60;;
35488;SDS011;21602;55.670;37.578;2022-08-03T04:32:13;12.52;;;5.40;;
35488;SDS011;21602;55.670;37.578;2022-08-03T04:34:40;9.70;;;5.20;;
35488;SDS011;21602;55.670;37.578;2022-08-03T04:37:10;13.77;;;5.60;;
35488;SDS011;21602;55.670;37.578;2022-08-03T04:39:38;9.32;;;5.60;;
35488;SDS011;21602;55.670;37.578;2022-08-03T04:42:08;6.38;;;4.30;;
35488;SDS011;21602;55.670;37.578;2022-08-03T04:44:37;9.55;;;5.43;;
35488;SDS011;21602;55.670;37.578;2022-08-03T04:47:05;7.47;;;4.82;;
35488;SDS011;21602;55.670;37.578;2022-08-03T04:49:31;12.20;;;5.22;;
35488;SDS011;21602;55.670;37.578;2022-08-03T04:51:59;9.98;;;5.32;;
35488;SDS011;21602;55.670;37.578;2022-08-03T04:54:25;8.70;;;4.85;;
35488;SDS011;21602;55.670;37.578;2022-08-03T04:56:51;6.30;;;4.60;;
35488;SDS011;21602;55.670;37.578;2022-08-03T04:59:17;10.43;;;5.10;;
35488;SDS011;21602;55.670;37.578;2022-08-03T05:01:42;11.10;;;5.10;;
35488;SDS011;21602;55.670;37.578;2022-08-03T05:04:08;11.15;;;4.75;;
35488;SDS011;21602;55.670;37.578;2022-08-03T05:06:34;10.25;;;5.13;;
35488;SDS011;21602;55.670;37.578;2022-08-03T05:09:00;14.35;;;4.93;;
35488;SDS011;21602;55.670;37.578;2022-08-03T05:11:26;9.30;;;4.82;;
35488;SDS011;21602;55.670;37.578;2022-08-03T05:13:52;9.43;;;5.10;;
35488;SDS011;21602;55.670;37.578;2022-08-03T05:16:17;8.80;;;5.10;;
35488;SDS011;21602;55.670;37.578;2022-08-03T05:18:43;13.77;;;4.55;;
35488;SDS011;21602;55.670;37.578;2022-08-03T05:21:10;13.55;;;5.22;;
35488;SDS011;21602;55.670;37.578;2022-08-03T05:23:38;8.25;;;5.22;;
35488;SDS011;21602;55.670;37.578;2022-08-03T05:26:05;12.40;;;4.93;;
35488;SDS011;21602;55.670;37.578;2022-08-03T05:28:31;9.07;;;5.35;;
35488;SDS011;21602;55.670;37.578;2022-08-03T05:30:57;7.88;;;5.40;;
35488;SDS011;21602;55.670;37.578;2022-08-03T05:33:23;17.08;;;5.55;;
35488;SDS011;21602;55.670;37.578;2022-08-03T05:35:48;10.00;;;6.30;;
35488;SDS011;21602;55.670;37.578;2022-08-03T05:38:14;14.43;;;6.40;;
35488;SDS011;21602;55.670;37.578;2022-08-03T05:40:40;12.88;;;5.38;;
35488;SDS011;21602;55.670;37.578;2022-08-03T05:43:06;13.02;;;6.63;;
35488;SDS011;21602;55.670;37.578;2022-08-03T05:45:31;13.32;;;5.55;;
35488;SDS011;21602;55.670;37.578;2022-08-03T05:47:57;12.35;;;6.05;;
35488;SDS011;21602;55.670;37.578;2022-08-03T05:50:23;9.18;;;5.57;;
35488;SDS011;21602;55.670;37.578;2022-08-03T05:52:49;14.48;;;8.15;;
35488;SDS011;21602;55.670;37.578;2022-08-03T05:55:15;11.27;;;5.57;;
35488;SDS011;21602;55.670;37.578;2022-08-03T05:57:40;19.17;;;6.22;;
35488;SDS011;21602;55.670;37.578;2022-08-03T06:00:07;14.10;;;6.07;;
35488;SDS011;21602;55.670;37.578;2022-08-03T06:02:38;16.33;;;6.35;;
35488;SDS011;21602;55.670;37.578;2022-08-03T06:05:04;9.25;;;5.07;;
35488;SDS011;21602;55.670;37.578;2022-08-03T06:07:30;15.25;;;6.32;;
35488;SDS011;21602;55.670;37.578;2022-08-03T06:09:57;11.35;;;5.93;;
35488;SDS011;21602;55.670;37.578;2022-08-03T06:12:24;8.15;;;5.15;;
35488;SDS011;21602;55.670;37.578;2022-08-03T06:14:50;15.73;;;5.88;;
35488;SDS011;21602;55.670;37.578;2022-08-03T06:17:16;11.23;;;5.35;;
35488;SDS011;21602;55.670;37.578;2022-08-03T06:19:42;14.75;;;5.65;;
35488;SDS011;21602;55.670;37.578;2022-08-03T06:22:08;22.17;;;6.68;;
35488;SDS011;21602;55.670;37.578;2022-08-03T06:24:33;20.13;;;6.25;;
35488;SDS011;21602;55.670;37.578;2022-08-03T06:26:59;18.30;;;7.38;;
35488;SDS011;21602;55.670;37.578;2022-08-03T06:29:25;17.30;;;7.38;;
35488;SDS011;21602;55.670;37.578;2022-08-03T06:31:51;12.27;;;5.72;;
35488;SDS011;21602;55.670;37.578;2022-08-03T06:34:16;19.13;;;7.53;;
35488;SDS011;21602;55.670;37.578;2022-08-03T06:36:42;14.15;;;5.40;;
35488;SDS011;21602;55.670;37.578;2022-08-03T06:39:08;13.32;;;5.65;;
35488;SDS011;21602;55.670;37.578;2022-08-03T06:41:33;18.08;;;5.88;;
35488;SDS011;21602;55.670;37.578;2022-08-03T06:44:01;11.18;;;6.45;;
35488;SDS011;21602;55.670;37.578;2022-08-03T06:46:27;15.52;;;6.25;;
35488;SDS011;21602;55.670;37.578;2022-08-03T06:48:52;14.82;;;5.60;;
35488;SDS011;21602;55.670;37.578;2022-08-03T06:51:20;14.52;;;5.20;;
35488;SDS011;21602;55.670;37.578;2022-08-03T06:53:45;13.38;;;4.38;;
35488;SDS011;21602;55.670;37.578;2022-08-03T06:56:11;8.05;;;4.40;;
35488;SDS011;21602;55.670;37.578;2022-08-03T06:58:37;9.13;;;4.28;;
35488;SDS011;21602;55.670;37.578;2022-08-03T07:01:03;13.93;;;3.92;;
35488;SDS011;21602;55.670;37.578;2022-08-03T07:03:28;6.63;;;3.72;;
35488;SDS011;21602;55.670;37.578;2022-08-03T07:05:54;4.20;;;3.33;;
35488;SDS011;21602;55.670;37.578;2022-08-03T07:08:20;9.60;;;3.50;;
35488;SDS011;21602;55.670;37.578;2022-08-03T07:10:46;9.18;;;3.92;;
35488;SDS011;21602;55.670;37.578;2022-08-03T07:13:11;8.13;;;4.10;;
35488;SDS011;21602;55.670;37.578;2022-08-03T07:15:38;11.60;;;3.83;;
35488;SDS011;21602;55.670;37.578;2022-08-03T07:18:04;10.10;;;4.05;;
35488;SDS011;21602;55.670;37.578;2022-08-03T07:20:30;14.77;;;3.67;;
35488;SDS011;21602;55.670;37.578;2022-08-03T07:22:57;6.95;;;2.92;;
35488;SDS011;21602;55.670;37.578;2022-08-03T07:25:23;5.25;;;4.15;;
35488;SDS011;21602;55.670;37.578;2022-08-03T07:27:49;9.65;;;3.05;;
35488;SDS011;21602;55.670;37.578;2022-08-03T07:30:15;8.45;;;3.72;;
35488;SDS011;21602;55.670;37.578;2022-08-03T07:32:42;5.20;;;3.35;;
35488;SDS011;21602;55.670;37.578;2022-08-03T07:35:08;7.07;;;4.97;;
35488;SDS011;21602;55.670;37.578;2022-08-03T07:37:35;6.25;;;2.63;;
35488;SDS011;21602;55.670;37.578;2022-08-03T07:40:01;9.77;;;5.10;;
35488;SDS011;21602;55.670;37.578;2022-08-03T07:42:29;7.70;;;3.15;;
35488;SDS011;21602;55.670;37.578;2022-08-03T07:44:55;6.38;;;2.95;;
35488;SDS011;21602;55.670;37.578;2022-08-03T07:47:22;12.48;;;3.45;;
35488;SDS011;21602;55.670;37.578;2022-08-03T07:49:49;5.70;;;3.00;;
35488;SDS011;21602;55.670;37.578;2022-08-03T07:52:15;8.60;;;3.03;;
35488;SDS011;21602;55.670;37.578;2022-08-03T07:54:59;5.90;;;3.55;;
35488;SDS011;21602;55.670;37.578;2022-08-03T07:57:25;6.93;;;3.63;;
35488;SDS011;21602;55.670;37.578;2022-08-03T07:59:50;8.23;;;3.40;;
35488;SDS011;21602;55.670;37.578;2022-08-03T08:02:16;6.78;;;3.30;;
35488;SDS011;21602;55.670;37.578;2022-08-03T08:04:42;9.70;;;5.25;;
35488;SDS011;21602;55.670;37.578;2022-08-03T08:07:08;5.97;;;3.13;;
35488;SDS011;21602;55.670;37.578;2022-08-03T08:09:34;6.47;;;4.22;;
35488;SDS011;21602;55.670;37.578;2022-08-03T08:11:59;7.18;;;5.07;;
35488;SDS011;21602;55.670;37.578;2022-08-03T08:14:25;12.02;;;3.00;;
35488;SDS011;21602;55.670;37.578;2022-08-03T08:16:51;5.22;;;2.90;;
35488;SDS011;21602;55.670;37.578;2022-08-03T08:19:17;8.75;;;4.07;;
35488;SDS011;21602;55.670;37.578;2022-08-03T08:21:43;8.30;;;3.70;;
35488;SDS011;21602;55.670;37.578;2022-08-03T08:24:08;10.85;;;4.28;;
35488;SDS011;21602;55.670;37.578;2022-08-03T08:26:34;11.05;;;3.78;;
35488;SDS011;21602;55.670;37.578;2022-08-03T08:29:01;5.47;;;4.30;;
35488;SDS011;21602;55.670;37.578;2022-08-03T08:31:28;11.95;;;3.88;;
35488;SDS011;21602;55.670;37.578;2022-08-03T08:33:54;19.45;;;4.35;;
35488;SDS011;21602;55.670;37.578;2022-08-03T08:36:19;9.07;;;4.78;;
35488;SDS011;21602;55.670;37.578;2022-08-03T08:38:45;7.28;;;3.65;;
35488;SDS011;21602;55.670;37.578;2022-08-03T08:41:11;14.73;;;4.88;;
35488;SDS011;21602;55.670;37.578;2022-08-03T08:43:38;6.13;;;3.20;;
35488;SDS011;21602;55.670;37.578;2022-08-03T08:46:05;9.88;;;4.18;;
35488;SDS011;21602;55.670;37.578;2022-08-03T08:48:35;6.95;;;2.95;;
35488;SDS011;21602;55.670;37.578;2022-08-03T08:51:04;10.45;;;3.53;;
35488;SDS011;21602;55.670;37.578;2022-08-03T08:53:31;7.70;;;3.67;;
35488;SDS011;21602;55.670;37.578;2022-08-03T08:56:01;7.15;;;4.22;;
35488;SDS011;21602;55.670;37.578;2022-08-03T08:58:29;7.07;;;3.13;;
35488;SDS011;21602;55.670;37.578;2022-08-03T09:01:01;8.10;;;4.68;;
35488;SDS011;21602;55.670;37.578;2022-08-03T09:03:27;16.17;;;4.95;;
35488;SDS011;21602;55.670;37.578;2022-08-03T09:05:52;9.38;;;3.03;;
35488;SDS011;21602;55.670;37.578;2022-08-03T09:08:18;6.97;;;4.28;;
35488;SDS011;21602;55.670;37.578;2022-08-03T09:10:44;9.80;;;3.92;;
35488;SDS011;21602;55.670;37.578;2022-08-03T09:13:10;3.75;;;3.10;;
35488;SDS011;21602;55.670;37.578;2022-08-03T09:15:36;7.20;;;5.32;;
35488;SDS011;21602;55.670;37.578;2022-08-03T09:18:03;13.63;;;9.80;;
35488;SDS011;21602;55.670;37.578;2022-08-03T09:20:30;10.90;;;5.07;;
35488;SDS011;21602;55.670;37.578;2022-08-03T09:25:27;6.60;;;3.20;;
35488;SDS011;21602;55.670;37.578;2022-08-03T09:27:53;5.35;;;3.00;;
35488;SDS011;21602;55.670;37.578;2022-08-03T09:30:19;10.27;;;3.03;;
35488;SDS011;21602;55.670;37.578;2022-08-03T09:32:45;4.30;;;2.95;;
35488;SDS011;21602;55.670;37.578;2022-08-03T09:35:12;6.75;;;3.15;;
35488;SDS011;21602;55.670;37.578;2022-08-03T09:37:38;9.37;;;3.07;;
35488;SDS011;21602;55.670;37.578;2022-08-03T09:40:05;6.68;;;3.05;;
35488;SDS011;21602;55.670;37.578;2022-08-03T09:42:31;7.95;;;2.85;;
35488;SDS011;21602;55.670;37.578;2022-08-03T09:45:03;6.43;;;2.83;;
35488;SDS011;21602;55.670;37.578;2022-08-03T09:47:31;4.30;;;2.80;;
35488;SDS011;21602;55.670;37.578;2022-08-03T09:50:02;6.13;;;2.63;;
35488;SDS011;21602;55.670;37.578;2022-08-03T09:52:34;7.88;;;3.13;;
35488;SDS011;21602;55.670;37.578;2022-08-03T09:55:02;4.75;;;3.05;;
35488;SDS011;21602;55.670;37.578;2022-08-03T09:57:33;3.72;;;2.75;;
35488;SDS011;21602;55.670;37.578;2022-08-03T10:00:06;5.28;;;3.17;;
35488;SDS011;21602;55.670;37.578;2022-08-03T10:02:40;6.75;;;2.72;;
35488;SDS011;21602;55.670;37.578;2022-08-03T10:05:07;10.45;;;3.75;;
35488;SDS011;21602;55.670;37.578;2022-08-03T10:07:44;6.22;;;3.17;;
35488;SDS011;21602;55.670;37.578;2022-08-03T10:10:12;5.25;;;2.63;;
35488;SDS011;21602;55.670;37.578;2022-08-03T10:12:40;12.10;;;3.60;;
35488;SDS011;21602;55.670;37.578;2022-08-03T10:15:06;8.20;;;3.30;;
35488;SDS011;21602;55.670;37.578;2022-08-03T10:17:33;10.55;;;2.83;;
35488;SDS011;21602;55.670;37.578;2022-08-03T10:19:59;6.22;;;3.20;;
35488;SDS011;21602;55.670;37.578;2022-08-03T10:22:26;8.57;;;3.00;;
35488;SDS011;21602;55.670;37.578;2022-08-03T10:25:11;6.63;;;2.97;;
35488;SDS011;21602;55.670;37.578;2022-08-03T10:27:38;4.03;;;3.22;;
35488;SDS011;21602;55.670;37.578;2022-08-03T10:30:06;9.27;;;3.22;;
35488;SDS011;21602;55.670;37.578;2022-08-03T10:35:25;5.40;;;3.13;;
35488;SDS011;21602;55.670;37.578;2022-08-03T10:37:54;6.75;;;2.65;;
35488;SDS011;21602;55.670;37.578;2022-08-03T10:40:31;8.55;;;2.83;;
35488;SDS011;21602;55.670;37.578;2022-08-03T10:43:00;4.05;;;3.10;;
35488;SDS011;21602;55.670;37.578;2022-08-03T10:45:30;5.45;;;3.15;;
35488;SDS011;21602;55.670;37.578;2022-08-03T10:47:59;8.38;;;2.97;;
35488;SDS011;21602;55.670;37.578;2022-08-03T10:50:26;8.65;;;2.92;;
35488;SDS011;21602;55.670;37.578;2022-08-03T10:53:00;6.10;;;3.20;;
35488;SDS011;21602;55.670;37.578;2022-08-03T10:55:34;5.13;;;2.83;;
35488;SDS011;21602;55.670;37.578;2022-08-03T11:01:03;7.57;;;2.90;;
35488;SDS011;21602;55.670;37.578;2022-08-03T11:03:30;8.88;;;3.10;;
35488;SDS011;21602;55.670;37.578;2022-08-03T11:06:16;5.28;;;2.70;;
35488;SDS011;21602;55.670;37.578;2022-08-03T11:08:44;7.10;;;3.15;;
35488;SDS011;21602;55.670;37.578;2022-08-03T11:16:39;5.18;;;3.55;;
35488;SDS011;21602;55.670;37.578;2022-08-03T11:19:18;4.90;;;3.35;;
35488;SDS011;21602;55.670;37.578;2022-08-03T11:35:07;4.63;;;3.47;;
35488;SDS011;21602;55.670;37.578;2022-08-03T11:38:10;4.38;;;3.53;;
35488;SDS011;21602;55.670;37.578;2022-08-03T11:40:37;8.93;;;3.33;;
35488;SDS011;21602;55.670;37.578;2022-08-03T11:43:04;4.97;;;3.58;;
35488;SDS011;21602;55.670;37.578;2022-08-03T11:45:31;4.05;;;2.92;;
35488;SDS011;21602;55.670;37.578;2022-08-03T11:47:59;5.68;;;4.07;;
35488;SDS011;21602;55.670;37.578;2022-08-03T11:50:40;4.28;;;2.92;;
35488;SDS011;21602;55.670;37.578;2022-08-03T11:53:13;6.80;;;3.50;;
35488;SDS011;21602;55.670;37.578;2022-08-03T11:55:42;4.65;;;3.45;;
35488;SDS011;21602;55.670;37.578;2022-08-03T11:58:14;6.10;;;2.80;;
35488;SDS011;21602;55.670;37.578;2022-08-03T12:00:41;3.70;;;3.03;;
35488;SDS011;21602;55.670;37.578;2022-08-03T12:03:08;5.95;;;2.95;;
35488;SDS011;21602;55.670;37.578;2022-08-03T12:08:06;3.78;;;3.20;;
35488;SDS011;21602;55.670;37.578;2022-08-03T12:10:35;10.50;;;8.05;;
35488;SDS011;21602;55.670;37.578;2022-08-03T12:13:02;8.35;;;4.53;;
35488;SDS011;21602;55.670;37.578;2022-08-03T12:15:35;7.03;;;3.70;;
35488;SDS011;21602;55.670;37.578;2022-08-03T12:18:09;4.18;;;2.88;;
35488;SDS011;21602;55.670;37.578;2022-08-03T12:20:44;4.75;;;2.90;;
35488;SDS011;21602;55.670;37.578;2022-08-03T12:23:11;16.20;;;4.05;;
35488;SDS011;21602;55.670;37.578;2022-08-03T12:25:37;7.10;;;2.90;;
35488;SDS011;21602;55.670;37.578;2022-08-03T12:28:06;4.22;;;2.75;;
35488;SDS011;21602;55.670;37.578;2022-08-03T12:30:32;5.05;;;2.88;;
35488;SDS011;21602;55.670;37.578;2022-08-03T12:32:58;6.70;;;3.13;;
35488;SDS011;21602;55.670;37.578;2022-08-03T12:35:23;12.77;;;5.13;;
35488;SDS011;21602;55.670;37.578;2022-08-03T12:37:52;5.40;;;3.20;;
35488;SDS011;21602;55.670;37.578;2022-08-03T12:40:24;5.93;;;3.22;;
35488;SDS011;21602;55.670;37.578;2022-08-03T12:42:51;8.45;;;4.53;;
35488;SDS011;21602;55.670;37.578;2022-08-03T12:45:21;10.63;;;4.93;;
35488;SDS011;21602;55.670;37.578;2022-08-03T12:47:51;11.27;;;5.20;;
35488;SDS011;21602;55.670;37.578;2022-08-03T12:52:58;5.32;;;3.05;;
35488;SDS011;21602;55.670;37.578;2022-08-03T12:55:25;5.82;;;3.15;;
35488;SDS011;21602;55.670;37.578;2022-08-03T12:58:04;6.63;;;3.15;;
35488;SDS011;21602;55.670;37.578;2022-08-03T13:00:32;11.63;;;3.10;;
35488;SDS011;21602;55.670;37.578;2022-08-03T13:03:07;9.68;;;3.30;;
35488;SDS011;21602;55.670;37.578;2022-08-03T13:05:42;5.47;;;2.70;;
35488;SDS011;21602;55.670;37.578;2022-08-03T13:08:18;3.33;;;2.97;;
35488;SDS011;21602;55.670;37.578;2022-08-03T13:10:46;3.28;;;2.90;;
35488;SDS011;21602;55.670;37.578;2022-08-03T13:13:12;4.30;;;3.90;;
35488;SDS011;21602;55.670;37.578;2022-08-03T13:15:38;5.38;;;2.72;;
35488;SDS011;21602;55.670;37.578;2022-08-03T13:18:04;9.02;;;3.30;;
35488;SDS011;21602;55.670;37.578;2022-08-03T13:20:30;6.53;;;3.38;;
35488;SDS011;21602;55.670;37.578;2022-08-03T13:22:56;5.43;;;3.45;;
35488;SDS011;21602;55.670;37.578;2022-08-03T13:25:22;6.20;;;2.90;;
35488;SDS011;21602;55.670;37.578;2022-08-03T13:27:48;4.18;;;2.80;;
35488;SDS011;21602;55.670;37.578;2022-08-03T13:30:14;7.85;;;3.30;;
35488;SDS011;21602;55.670;37.578;2022-08-03T13:32:40;7.43;;;3.75;;
35488;SDS011;21602;55.670;37.578;2022-08-03T13:35:07;6.82;;;4.03;;
35488;SDS011;21602;55.670;37.578;2022-08-03T13:37:34;8.65;;;4.10;;
35488;SDS011;21602;55.670;37.578;2022-08-03T13:40:00;6.05;;;4.05;;
35488;SDS011;21602;55.670;37.578;2022-08-03T13:42:32;15.60;;;5.55;;
35488;SDS011;21602;55.670;37.578;2022-08-03T13:44:59;9.40;;;4.38;;
35488;SDS011;21602;55.670;37.578;2022-08-03T13:47:25;9.43;;;4.30;;
35488;SDS011;21602;55.670;37.578;2022-08-03T13:49:52;13.98;;;3.40;;
35488;SDS011;21602;55.670;37.578;2022-08-03T13:52:18;11.32;;;3.85;;
35488;SDS011;21602;55.670;37.578;2022-08-03T13:54:44;8.05;;;2.92;;
35488;SDS011;21602;55.670;37.578;2022-08-03T13:57:10;5.28;;;4.10;;
35488;SDS011;21602;55.670;37.578;2022-08-03T13:59:36;7.57;;;3.50;;
35488;SDS011;21602;55.670;37.578;2022-08-03T14:02:03;5.57;;;3.35;;
35488;SDS011;21602;55.670;37.578;2022-08-03T14:04:29;5.97;;;3.78;;
35488;SDS011;21602;55.670;37.578;2022-08-03T14:06:55;6.97;;;3.67;;
35488;SDS011;21602;55.670;37.578;2022-08-03T14:09:21;8.38;;;3.67;;
35488;SDS011;21602;55.670;37.578;2022-08-03T14:11:46;7.60;;;3.90;;
35488;SDS011;21602;55.670;37.578;2022-08-03T14:14:12;11.68;;;5.25;;
35488;SDS011;21602;55.670;37.578;2022-08-03T14:16:38;4.63;;;3.22;;
35488;SDS011;21602;55.670;37.578;2022-08-03T14:19:04;10.32;;;3.17;;
35488;SDS011;21602;55.670;37.578;2022-08-03T14:21:31;3.78;;;2.72;;
35488;SDS011;21602;55.670;37.578;2022-08-03T14:23:58;8.13;;;4.18;;
35488;SDS011;21602;55.670;37.578;2022-08-03T14:26:23;7.05;;;3.22;;
35488;SDS011;21602;55.670;37.578;2022-08-03T14:28:49;7.95;;;3.10;;
35488;SDS011;21602;55.670;37.578;2022-08-03T14:31:15;7.18;;;3.65;;
35488;SDS011;21602;55.670;37.578;2022-08-03T14:33:41;7.60;;;3.20;;
35488;SDS011;21602;55.670;37.578;2022-08-03T14:36:07;11.65;;;3.30;;
35488;SDS011;21602;55.670;37.578;2022-08-03T14:38:32;7.55;;;3.85;;
35488;SDS011;21602;55.670;37.578;2022-08-03T14:40:58;10.15;;;3.35;;
35488;SDS011;21602;55.670;37.578;2022-08-03T14:43:24;27.52;;;9.32;;
35488;SDS011;21602;55.670;37.578;2022-08-03T14:45:50;9.45;;;4.35;;
35488;SDS011;21602;55.670;37.578;2022-08-03T14:48:21;12.65;;;4.10;;
35488;SDS011;21602;55.670;37.578;2022-08-03T14:50:48;5.82;;;3.28;;
35488;SDS011;21602;55.670;37.578;2022-08-03T14:53:14;8.77;;;3.70;;
35488;SDS011;21602;55.670;37.578;2022-08-03T14:55:42;9.25;;;3.45;;
35488;SDS011;21602;55.670;37.578;2022-08-03T14:58:08;14.00;;;6.80;;
35488;SDS011;21602;55.670;37.578;2022-08-03T15:00:34;9.27;;;3.17;;
35488;SDS011;21602;55.670;37.578;2022-08-03T15:03:03;20.45;;;5.60;;
35488;SDS011;21602;55.670;37.578;2022-08-03T15:05:29;7.72;;;4.43;;
35488;SDS011;21602;55.670;37.578;2022-08-03T15:07:55;10.40;;;4.75;;
35488;SDS011;21602;55.670;37.578;2022-08-03T15:10:21;17.98;;;7.68;;
35488;SDS011;21602;55.670;37.578;2022-08-03T15:12:47;8.98;;;3.55;;
35488;SDS011;21602;55.670;37.578;2022-08-03T15:15:13;5.85;;;3.75;;
35488;SDS011;21602;55.670;37.578;2022-08-03T15:17:39;14.50;;;8.45;;
35488;SDS011;21602;55.670;37.578;2022-08-03T15:20:05;5.65;;;3.83;;
35488;SDS011;21602;55.670;37.578;2022-08-03T15:22:32;22.05;;;13.95;;
35488;SDS011;21602;55.670;37.578;2022-08-03T15:24:59;12.45;;;7.78;;
35488;SDS011;21602;55.670;37.578;2022-08-03T15:27:29;13.75;;;5.75;;
35488;SDS011;21602;55.670;37.578;2022-08-03T15:29:54;11.05;;;6.38;;